Time;durP1;ratioP1;P1;durP2;ratioP2;P2;SDS_P1;SDS_P2;PMS_P1;PMS_P2;Temp;Humidity;BMP_temperature;BMP_pressure;BME280_temperature;BME280_humidity;BME280_pressure;Samples;Min_cycle;Max_cycle;Signal;HPM_P1;HPM_P2
2021/01/14 00:00:55;;;;;;;70.65;29.70;;;-5.80;99.90;;;;;;4185316;28;20074;-41
2021/01/14 00:02:56;;;;;;;68.00;28.88;;;-5.90;99.90;;;;;;4190010;28;20036;-40
2021/01/14 00:04:58;;;;;;;70.55;29.30;;;-5.90;99.90;;;;;;4191117;28;20028;-46
2021/01/14 00:06:59;;;;;;;73.45;27.40;;;-5.90;99.90;;;;;;4186979;28;20024;-41
2021/01/14 00:09:00;;;;;;;64.65;26.20;;;-5.90;99.90;;;;;;4174121;28;20049;-46
2021/01/14 00:11:01;;;;;;;69.13;28.42;;;-5.90;99.90;;;;;;4173526;28;20037;-42
2021/01/14 00:13:07;;;;;;;67.45;28.02;;;-5.90;99.90;;;;;;4176500;28;20098;-39
2021/01/14 00:15:10;;;;;;;76.43;26.88;;;-5.90;99.90;;;;;;4189507;28;20061;-39
2021/01/14 00:17:11;;;;;;;62.35;26.83;;;-5.90;99.90;;;;;;4175604;28;20074;-39
2021/01/14 00:19:12;;;;;;;69.18;26.13;;;-5.90;99.90;;;;;;4180671;28;20074;-43
2021/01/14 00:21:14;;;;;;;65.68;26.73;;;-5.90;99.90;;;;;;4189784;28;20552;-46
2021/01/14 00:23:15;;;;;;;61.78;25.70;;;-5.90;99.90;;;;;;4189917;28;20554;-41
2021/01/14 00:25:17;;;;;;;63.72;27.15;;;-5.90;99.90;;;;;;4190008;28;20086;-41
2021/01/14 00:27:18;;;;;;;68.50;27.65;;;-5.80;99.90;;;;;;4186495;28;20021;-39
2021/01/14 00:29:19;;;;;;;68.22;26.73;;;-5.80;99.90;;;;;;4172734;28;20049;-38
2021/01/14 00:31:20;;;;;;;61.17;25.27;;;-5.80;99.90;;;;;;4173795;28;20048;-39
2021/01/14 00:33:23;;;;;;;62.47;26.65;;;-5.80;99.90;;;;;;4186142;28;20957;-47
2021/01/14 00:35:26;;;;;;;63.83;26.40;;;-5.80;99.90;;;;;;4189874;28;20090;-40
2021/01/14 00:39:47;;;;;;;62.15;26.35;;;-5.80;99.90;;;;;;4176684;28;20103;-42
2021/01/14 00:41:49;;;;;;;67.68;27.83;;;-5.80;99.90;;;;;;4172925;28;20090;-39
2021/01/14 00:43:50;;;;;;;63.78;26.35;;;-5.70;99.90;;;;;;4174604;28;20091;-43
2021/01/14 00:45:51;;;;;;;66.70;26.05;;;-5.70;99.90;;;;;;4174586;28;20041;-39
2021/01/14 00:47:52;;;;;;;58.75;25.17;;;-5.70;99.90;;;;;;4175258;28;20036;-38
2021/01/14 00:49:53;;;;;;;60.42;26.13;;;-5.70;99.90;;;;;;4173329;28;20071;-40
2021/01/14 00:51:55;;;;;;;62.33;25.73;;;-5.70;99.90;;;;;;4173033;28;20568;-39
2021/01/14 00:53:56;;;;;;;60.22;24.88;;;-5.70;99.90;;;;;;4175623;28;20082;-39
2021/01/14 00:55:57;;;;;;;61.53;25.08;;;-5.60;99.90;;;;;;4189849;28;20048;-40
2021/01/14 00:57:58;;;;;;;58.90;23.30;;;-5.60;99.90;;;;;;4190066;28;20040;-40
2021/01/14 00:59:59;;;;;;;59.53;24.77;;;-5.60;99.90;;;;;;4189508;28;20048;-44
2021/01/14 01:02:01;;;;;;;56.15;25.50;;;-5.70;99.90;;;;;;4189517;28;20488;-41
2021/01/14 01:04:02;;;;;;;64.95;24.88;;;-5.70;99.90;;;;;;4175612;28;20071;-43
2021/01/14 01:06:03;;;;;;;56.83;23.90;;;-5.60;99.90;;;;;;4173446;28;20033;-40
2021/01/14 01:08:05;;;;;;;61.97;26.55;;;-5.60;99.90;;;;;;4178567;28;20078;-41
2021/01/14 01:10:07;;;;;;;63.95;25.00;;;-5.50;99.90;;;;;;4189111;28;20033;-41
2021/01/14 01:12:10;;;;;;;65.30;25.77;;;-5.50;99.90;;;;;;4189317;28;20278;-39
2021/01/14 01:14:12;;;;;;;59.08;23.35;;;-5.50;99.90;;;;;;4177319;28;20049;-39
2021/01/14 01:16:15;;;;;;;58.28;23.50;;;-5.50;99.90;;;;;;4172788;28;20496;-39
2021/01/14 01:18:16;;;;;;;59.38;25.27;;;-5.60;99.90;;;;;;4174543;28;20441;-40
2021/01/14 01:20:18;;;;;;;54.92;23.23;;;-5.60;99.90;;;;;;4172724;28;20106;-40
2021/01/14 01:22:19;;;;;;;52.70;23.73;;;-5.50;99.90;;;;;;4173345;28;20523;-40
2021/01/14 01:24:20;;;;;;;53.45;22.02;;;-5.50;99.90;;;;;;4172494;28;20091;-40
2021/01/14 01:26:21;;;;;;;50.53;22.13;;;-5.40;99.90;;;;;;4188635;28;20559;-43
2021/01/14 01:28:23;;;;;;;59.67;23.42;;;-5.30;99.90;;;;;;4189860;28;20472;-41
2021/01/14 01:30:24;;;;;;;65.82;24.98;;;-5.20;99.90;;;;;;4188207;28;20098;-39
2021/01/14 01:32:25;;;;;;;54.45;23.73;;;-5.10;99.90;;;;;;4186900;28;20028;-39
2021/01/14 01:34:26;;;;;;;59.78;25.00;;;-5.20;99.90;;;;;;4174037;28;20091;-40
2021/01/14 01:36:27;;;;;;;60.83;23.63;;;-5.10;99.90;;;;;;4172702;28;20118;-40
2021/01/14 01:38:28;;;;;;;55.70;24.55;;;-5.10;99.90;;;;;;4187038;28;20495;-43
2021/01/14 01:40:30;;;;;;;59.20;23.23;;;-5.10;99.90;;;;;;4188000;28;20133;-39
2021/01/14 01:42:31;;;;;;;57.70;22.92;;;-5.10;99.90;;;;;;4171819;28;20029;-43
2021/01/14 01:44:32;;;;;;;51.97;21.98;;;-5.10;99.90;;;;;;4173579;28;20099;-39
2021/01/14 01:46:34;;;;;;;54.85;22.58;;;-5.00;99.90;;;;;;4179174;28;20086;-39
2021/01/14 01:48:35;;;;;;;51.55;22.10;;;-5.00;99.90;;;;;;4186800;28;20044;-41
2021/01/14 01:50:36;;;;;;;62.95;26.83;;;-5.00;99.90;;;;;;4188537;28;20036;-42
2021/01/14 01:52:38;;;;;;;56.83;24.85;;;-5.00;99.90;;;;;;4188603;28;20048;-39
2021/01/14 01:54:40;;;;;;;57.92;24.13;;;-5.00;99.90;;;;;;4188485;28;20073;-39
2021/01/14 01:56:41;;;;;;;46.90;22.30;;;-5.10;99.90;;;;;;4188909;28;20032;-40
2021/01/14 01:58:44;;;;;;;55.20;22.30;;;-5.20;99.90;;;;;;4186782;28;20569;-40
2021/01/14 02:00:45;;;;;;;54.55;22.00;;;-5.30;99.90;;;;;;4188461;28;20085;-38
2021/01/14 02:02:46;;;;;;;51.03;21.88;;;-5.40;99.90;;;;;;4184836;28;20045;-41
2021/01/14 02:04:48;;;;;;;46.13;20.20;;;-5.40;99.90;;;;;;4173545;28;20508;-40
2021/01/14 02:06:58;;;;;;;54.88;21.35;;;-5.50;99.90;;;;;;4172171;28;20473;-40
2021/01/14 02:09:04;;;;;;;53.38;21.10;;;-5.60;99.90;;;;;;4172051;28;20044;-41
2021/01/14 02:11:12;;;;;;;52.85;21.25;;;-5.60;99.90;;;;;;4172204;28;20147;-43
2021/01/14 02:13:29;;;;;;;55.88;21.85;;;-5.70;99.90;;;;;;4172286;28;21057;-42
2021/01/14 02:15:32;;;;;;;52.42;21.83;;;-5.80;99.90;;;;;;4173372;28;20546;-42
2021/01/14 02:17:33;;;;;;;51.10;22.05;;;-5.80;99.90;;;;;;4172167;28;20033;-44
2021/01/14 02:19:44;;;;;;;47.63;20.45;;;-5.90;99.90;;;;;;4179921;28;20052;-39
2021/01/14 02:21:48;;;;;;;50.35;21.10;;;-6.00;99.90;;;;;;4186665;28;20040;-40
2021/01/14 02:24:36;;;;;;;47.95;21.42;;;-6.00;99.90;;;;;;4189247;28;20481;-39
2021/01/14 02:26:40;;;;;;;53.60;22.02;;;-6.00;99.90;;;;;;4152554;28;20044;-43
2021/01/14 02:28:44;;;;;;;54.50;22.25;;;-6.00;99.90;;;;;;4172538;28;20099;-40
2021/01/14 02:30:45;;;;;;;54.63;23.10;;;-6.10;99.90;;;;;;4171931;28;20500;-41
2021/01/14 02:32:46;;;;;;;54.63;23.17;;;-6.10;99.90;;;;;;4172175;28;20850;-39
2021/01/14 02:34:50;;;;;;;62.05;23.15;;;-6.10;99.90;;;;;;4175638;28;20423;-43
2021/01/14 02:36:52;;;;;;;51.85;22.02;;;-6.00;99.90;;;;;;4189080;28;20525;-38
2021/01/14 02:38:53;;;;;;;47.70;20.85;;;-6.00;99.90;;;;;;4185016;28;20040;-41
2021/01/14 02:40:55;;;;;;;52.63;21.52;;;-5.90;99.90;;;;;;4187771;28;20438;-42
2021/01/14 02:42:56;;;;;;;56.33;22.15;;;-5.90;99.90;;;;;;4188261;28;20045;-39
2021/01/14 02:44:58;;;;;;;48.00;20.35;;;-5.80;99.90;;;;;;4187219;28;20045;-42
2021/01/14 02:47:01;;;;;;;51.15;22.00;;;-5.80;99.90;;;;;;4187226;28;20037;-41
2021/01/14 02:49:08;;;;;;;51.97;22.20;;;-5.80;99.90;;;;;;4187867;28;20112;-39
2021/01/14 02:51:18;;;;;;;54.20;21.58;;;-5.80;99.90;;;;;;4187724;28;20025;-41
2021/01/14 02:53:22;;;;;;;58.38;24.30;;;-5.80;99.90;;;;;;4190440;28;20743;-45
2021/01/14 02:55:24;;;;;;;51.25;21.92;;;-5.70;99.90;;;;;;4191669;28;20025;-40
2021/01/14 02:57:27;;;;;;;50.38;22.42;;;-5.70;99.90;;;;;;4191326;28;20541;-42
2021/01/14 02:59:28;;;;;;;49.05;21.73;;;-5.70;99.90;;;;;;4191770;28;20045;-40
2021/01/14 03:01:29;;;;;;;50.78;20.30;;;-5.70;99.90;;;;;;4191558;28;20028;-42
2021/01/14 03:03:30;;;;;;;54.47;21.25;;;-5.60;99.90;;;;;;4180790;28;20041;-40
2021/01/14 03:05:31;;;;;;;50.03;19.98;;;-5.70;99.90;;;;;;4175063;28;20037;-41
2021/01/14 03:07:32;;;;;;;57.15;21.50;;;-5.60;99.90;;;;;;4184800;28;20036;-41
2021/01/14 03:09:34;;;;;;;44.33;19.60;;;-5.70;99.90;;;;;;4175173;28;20748;-40
2021/01/14 03:11:35;;;;;;;49.60;19.60;;;-5.70;99.90;;;;;;4174958;28;20440;-41
2021/01/14 03:13:36;;;;;;;47.42;20.08;;;-5.80;99.90;;;;;;4174736;28;20029;-40
2021/01/14 03:15:38;;;;;;;52.88;20.23;;;-5.80;99.90;;;;;;4186627;28;20029;-40
2021/01/14 03:17:39;;;;;;;48.58;19.23;;;-5.80;99.90;;;;;;4190649;28;20440;-39
2021/01/14 03:19:40;;;;;;;50.50;20.00;;;-5.70;99.90;;;;;;4183870;28;20110;-41
2021/01/14 03:21:41;;;;;;;49.70;20.67;;;-5.70;99.90;;;;;;4175661;28;20029;-38
2021/01/14 03:23:42;;;;;;;47.92;20.08;;;-5.70;99.90;;;;;;4174856;28;20044;-42
2021/01/14 03:25:44;;;;;;;54.03;21.65;;;-5.70;99.90;;;;;;4174195;28;20029;-40
2021/01/14 03:27:46;;;;;;;51.15;21.40;;;-5.70;99.90;;;;;;4178386;28;20641;-43
2021/01/14 03:29:47;;;;;;;50.33;19.95;;;-5.70;99.90;;;;;;4180913;28;20050;-41
2021/01/14 03:31:49;;;;;;;46.25;20.20;;;-5.70;99.90;;;;;;4174409;28;20509;-39
2021/01/14 03:33:50;;;;;;;43.50;19.63;;;-5.70;99.90;;;;;;4190924;28;20102;-40
2021/01/14 03:35:52;;;;;;;47.05;19.00;;;-5.70;99.90;;;;;;4191529;28;20036;-39
2021/01/14 03:37:53;;;;;;;46.13;19.13;;;-5.70;99.90;;;;;;4180107;28;20067;-45
2021/01/14 03:39:54;;;;;;;43.78;19.40;;;-5.70;99.90;;;;;;4174513;28;20483;-43
2021/01/14 03:41:57;;;;;;;47.80;19.92;;;-5.70;99.90;;;;;;4174566;28;20041;-40
2021/01/14 03:43:58;;;;;;;45.40;19.20;;;-5.80;99.90;;;;;;4174691;28;20412;-43
2021/01/14 03:45:59;;;;;;;46.15;19.35;;;-5.70;99.90;;;;;;4174502;28;20130;-39
2021/01/14 03:48:00;;;;;;;47.25;19.25;;;-5.70;99.90;;;;;;4175316;28;20028;-43
2021/01/14 03:50:02;;;;;;;48.05;20.60;;;-5.60;99.90;;;;;;4174465;28;20978;-44
2021/01/14 03:52:03;;;;;;;46.83;20.67;;;-5.50;99.90;;;;;;4174859;28;20033;-40
2021/01/14 03:54:05;;;;;;;54.28;22.08;;;-5.50;99.90;;;;;;4174379;28;20041;-40
2021/01/14 03:56:06;;;;;;;49.35;21.65;;;-5.50;99.90;;;;;;4185825;28;20040;-41
2021/01/14 03:58:08;;;;;;;50.08;21.70;;;-5.60;99.90;;;;;;4191583;28;20032;-41
2021/01/14 04:00:09;;;;;;;48.65;20.60;;;-5.70;99.90;;;;;;4189779;28;20052;-43
2021/01/14 04:02:11;;;;;;;46.40;20.23;;;-5.70;99.90;;;;;;4187087;28;20029;-40
2021/01/14 04:04:12;;;;;;;45.22;19.90;;;-5.80;99.90;;;;;;4182336;28;20032;-42
2021/01/14 04:06:14;;;;;;;48.38;20.23;;;-5.80;99.90;;;;;;4177189;28;20497;-41
2021/01/14 04:08:15;;;;;;;41.78;19.25;;;-5.80;99.90;;;;;;4189856;28;20036;-45
2021/01/14 04:10:16;;;;;;;51.13;22.10;;;-5.80;99.90;;;;;;4190004;28;20114;-39
2021/01/14 04:12:26;;;;;;;50.50;21.00;;;-5.90;99.90;;;;;;4190219;28;20032;-42
2021/01/14 04:14:27;;;;;;;45.30;19.30;;;-5.90;99.90;;;;;;4190208;28;20129;-39
2021/01/14 04:16:29;;;;;;;45.05;20.00;;;-5.90;99.90;;;;;;4190333;28;20033;-42
2021/01/14 04:18:30;;;;;;;51.45;21.42;;;-5.90;99.90;;;;;;4190158;28;20071;-42
2021/01/14 04:20:31;;;;;;;46.85;19.30;;;-5.90;99.90;;;;;;4175649;28;20122;-39
2021/01/14 04:22:32;;;;;;;51.13;20.60;;;-5.90;99.90;;;;;;4173530;28;20037;-40
2021/01/14 04:24:36;;;;;;;43.53;19.17;;;-5.90;99.90;;;;;;4174055;28;20033;-42
2021/01/14 04:26:38;;;;;;;44.58;19.73;;;-5.80;99.90;;;;;;4173037;28;20763;-41
2021/01/14 04:28:40;;;;;;;53.80;20.25;;;-5.70;99.90;;;;;;4174483;28;20044;-43
2021/01/14 04:30:41;;;;;;;50.38;20.05;;;-5.70;99.90;;;;;;4172905;28;20095;-43
2021/01/14 04:32:42;;;;;;;53.80;20.92;;;-5.60;99.90;;;;;;4174026;28;20888;-42
2021/01/14 04:34:43;;;;;;;51.95;20.23;;;-5.60;99.90;;;;;;4178811;28;20525;-39
2021/01/14 04:36:45;;;;;;;49.33;21.50;;;-5.60;99.90;;;;;;4190243;28;20147;-41
2021/01/14 04:38:46;;;;;;;43.90;18.75;;;-5.50;99.90;;;;;;4190253;28;20028;-41
2021/01/14 04:40:58;;;;;;;51.38;19.25;;;-5.50;99.90;;;;;;4190140;28;20097;-41
2021/01/14 04:42:59;;;;;;;46.45;20.45;;;-5.50;99.90;;;;;;4190063;28;20092;-41
2021/01/14 04:45:03;;;;;;;52.25;22.23;;;-5.50;99.90;;;;;;4189763;28;20110;-41
2021/01/14 04:47:12;;;;;;;46.42;20.90;;;-5.40;99.90;;;;;;4189755;28;20559;-39
2021/01/14 04:49:17;;;;;;;52.53;20.65;;;-5.40;99.90;;;;;;4189605;28;20048;-42
2021/01/14 04:51:20;;;;;;;45.65;19.50;;;-5.40;99.90;;;;;;4189257;28;20094;-43
2021/01/14 04:53:21;;;;;;;50.97;21.60;;;-5.30;99.90;;;;;;4189933;28;20055;-46
2021/01/14 04:55:27;;;;;;;59.22;24.05;;;-5.30;99.90;;;;;;4189555;28;20595;-44
2021/01/14 04:57:29;;;;;;;130.43;50.25;;;-5.20;99.90;;;;;;4188637;28;20989;-46
2021/01/14 04:59:34;;;;;;;66.07;26.63;;;-5.20;99.90;;;;;;4190299;28;20033;-42
2021/01/14 05:01:44;;;;;;;55.92;24.83;;;-5.20;99.90;;;;;;4178186;28;20037;-42
2021/01/14 05:03:47;;;;;;;60.42;24.10;;;-5.10;99.90;;;;;;4173208;28;20489;-40
2021/01/14 05:05:49;;;;;;;91.68;34.88;;;-5.00;99.90;;;;;;4178702;28;20086;-43
2021/01/14 05:08:24;;;;;;;77.78;31.65;;;-5.00;99.90;;;;;;4189523;28;20044;-45
2021/01/14 05:10:26;;;;;;;48.45;21.83;;;-5.00;99.90;;;;;;4184453;28;20044;-42
2021/01/14 05:12:30;;;;;;;47.17;20.58;;;-5.00;99.90;;;;;;4189623;28;20510;-42
2021/01/14 05:14:32;;;;;;;47.83;20.60;;;-4.90;99.90;;;;;;4188991;28;20082;-40
2021/01/14 05:16:33;;;;;;;48.15;20.90;;;-4.90;99.90;;;;;;4178215;28;20059;-41
2021/01/14 05:18:35;;;;;;;54.97;27.15;;;-4.90;99.90;;;;;;4170829;28;20103;-42
2021/01/14 05:20:36;;;;;;;56.42;25.85;;;-4.90;99.90;;;;;;4173752;28;20113;-38
2021/01/14 05:22:38;;;;;;;62.20;32.83;;;-4.90;99.90;;;;;;4186563;28;20090;-38
2021/01/14 05:25:03;;;;;;;49.55;24.50;;;-4.80;99.90;;;;;;4189051;28;20040;-40
2021/01/14 05:27:21;;;;;;;57.83;26.65;;;-4.90;99.90;;;;;;4188184;28;20036;-39
2021/01/14 05:29:22;;;;;;;58.60;26.95;;;-4.80;99.90;;;;;;4189351;28;20063;-42
2021/01/14 05:31:25;;;;;;;52.95;23.73;;;-4.90;99.90;;;;;;4188624;28;20049;-39
2021/01/14 05:33:27;;;;;;;47.80;23.27;;;-4.90;99.90;;;;;;4189786;28;20086;-39
2021/01/14 05:35:29;;;;;;;46.05;20.55;;;-4.80;99.90;;;;;;4188698;28;20032;-39
2021/01/14 05:37:31;;;;;;;42.38;20.08;;;-4.70;99.90;;;;;;4183517;28;20029;-42
2021/01/14 05:39:42;;;;;;;35.85;15.73;;;-4.60;99.90;;;;;;4181517;28;20535;-37
2021/01/14 05:41:43;;;;;;;32.40;13.23;;;-4.60;99.90;;;;;;4189138;28;20484;-38
2021/01/14 05:43:55;;;;;;;28.60;13.38;;;-4.60;99.90;;;;;;4189394;28;20048;-39
2021/01/14 05:46:17;;;;;;;28.75;12.25;;;-4.50;99.90;;;;;;4188975;28;20090;-40
2021/01/14 05:48:18;;;;;;;30.75;13.15;;;-4.40;99.90;;;;;;4186819;28;20515;-38
2021/01/14 05:50:30;;;;;;;27.17;13.32;;;-4.50;99.90;;;;;;4188554;28;20044;-39
2021/01/14 05:52:32;;;;;;;25.45;11.40;;;-4.50;99.90;;;;;;4188851;28;20546;-41
2021/01/14 05:54:36;;;;;;;24.80;13.25;;;-4.50;99.90;;;;;;4188233;28;20484;-42
2021/01/14 05:56:50;;;;;;;27.60;13.43;;;-4.50;99.90;;;;;;4188841;28;20016;-38
2021/01/14 05:58:54;;;;;;;37.58;15.85;;;-4.50;99.90;;;;;;4189599;28;20024;-42
2021/01/14 06:01:03;;;;;;;38.45;16.33;;;-4.60;99.90;;;;;;4188020;28;20049;-37
2021/01/14 06:03:24;;;;;;;40.33;16.73;;;-4.70;99.90;;;;;;4188399;28;20094;-39
2021/01/14 06:05:32;;;;;;;42.50;17.52;;;-4.80;99.90;;;;;;4188260;28;20029;-40
2021/01/14 06:07:40;;;;;;;41.28;17.35;;;-4.90;99.90;;;;;;4188804;28;20029;-38
2021/01/14 06:09:42;;;;;;;41.00;16.85;;;-5.10;99.90;;;;;;4188367;28;20110;-40
2021/01/14 06:11:45;;;;;;;41.67;17.73;;;-5.10;99.90;;;;;;4188391;28;20040;-40
2021/01/14 06:13:46;;;;;;;40.67;18.08;;;-5.10;99.90;;;;;;4188131;28;20484;-42
2021/01/14 06:15:59;;;;;;;37.08;18.10;;;-5.10;99.90;;;;;;4188143;28;20097;-38
2021/01/14 06:18:07;;;;;;;37.78;17.75;;;-5.10;99.90;;;;;;4187693;28;20086;-37
2021/01/14 06:20:10;;;;;;;42.45;18.25;;;-5.20;99.90;;;;;;4187354;28;20462;-38
2021/01/14 06:22:15;;;;;;;45.55;19.45;;;-5.20;99.90;;;;;;4188435;28;20040;-39
2021/01/14 06:24:29;;;;;;;46.22;21.15;;;-5.20;99.90;;;;;;4188650;28;20033;-42
2021/01/14 06:26:31;;;;;;;41.50;20.17;;;-5.20;99.90;;;;;;4188061;28;20480;-40
2021/01/14 06:28:35;;;;;;;39.10;17.40;;;-5.20;99.90;;;;;;4188794;28;20032;-41
2021/01/14 06:31:01;;;;;;;38.65;17.10;;;-5.20;99.90;;;;;;4188439;28;20446;-44
2021/01/14 06:33:03;;;;;;;38.88;18.02;;;-5.20;99.90;;;;;;4188251;28;20581;-42
2021/01/14 06:35:06;;;;;;;42.03;19.13;;;-5.10;99.90;;;;;;4187167;28;20086;-41
2021/01/14 06:37:17;;;;;;;56.85;23.13;;;-5.10;99.90;;;;;;4188578;28;20041;-44
2021/01/14 06:39:19;;;;;;;63.05;25.38;;;-5.10;99.90;;;;;;4187754;28;20044;-43
2021/01/14 06:41:22;;;;;;;99.80;34.00;;;-5.10;99.90;;;;;;4188155;28;20044;-43
2021/01/14 06:43:27;;;;;;;123.82;41.60;;;-5.10;99.90;;;;;;4188581;28;20037;-44
2021/01/14 06:45:50;;;;;;;79.65;30.50;;;-5.10;99.90;;;;;;4186362;28;20082;-44
2021/01/14 06:48:02;;;;;;;53.78;23.02;;;-5.00;99.90;;;;;;4188343;28;20036;-44
2021/01/14 06:50:26;;;;;;;70.90;28.38;;;-5.00;99.90;;;;;;4188221;28;20036;-51
2021/01/14 06:52:29;;;;;;;60.45;26.27;;;-5.00;99.90;;;;;;4187766;28;20048;-40
2021/01/14 06:54:38;;;;;;;65.50;31.83;;;-4.90;99.90;;;;;;4188226;28;20020;-41
2021/01/14 06:56:56;;;;;;;79.57;34.97;;;-4.90;99.90;;;;;;4187889;28;20519;-46
2021/01/14 06:59:00;;;;;;;62.55;30.90;;;-4.80;99.90;;;;;;4188623;28;20098;-41
2021/01/14 07:01:02;;;;;;;54.85;24.60;;;-4.70;99.90;;;;;;4186219;28;20029;-38
2021/01/14 07:03:12;;;;;;;49.85;22.10;;;-4.70;99.90;;;;;;4188115;28;20568;-45
2021/01/14 07:05:23;;;;;;;71.43;25.58;;;-4.70;99.90;;;;;;4188490;28;20089;-41
2021/01/14 07:07:24;;;;;;;;;;;-4.60;99.90;;;;;;4188189;28;20048;-44
2021/01/14 07:09:27;;;;;;;;;;;-4.60;99.90;;;;;;4187443;28;19908;-45
2021/01/14 07:11:36;;;;;;;54.20;21.50;;;-4.60;99.90;;;;;;4187268;28;19966;-38
2021/01/14 07:13:49;;;;;;;55.33;24.60;;;-4.50;99.90;;;;;;4188207;28;20036;-48
2021/01/14 07:15:55;;;;;;;58.70;26.75;;;-4.50;99.90;;;;;;4187849;28;20021;-43
2021/01/14 07:18:03;;;;;;;64.20;25.27;;;-4.40;99.90;;;;;;4188076;28;20098;-40
2021/01/14 07:20:08;;;;;;;57.63;27.02;;;-4.30;99.90;;;;;;4168786;28;20072;-44
2021/01/14 07:22:13;;;;;;;56.28;28.35;;;-4.20;99.90;;;;;;4187916;28;20439;-43
2021/01/14 07:24:21;;;;;;;60.78;29.33;;;-4.10;99.90;;;;;;4187354;28;20029;-43
2021/01/14 07:26:23;;;;;;;55.63;27.55;;;-4.00;99.90;;;;;;4187991;28;20024;-45
2021/01/14 07:28:25;;;;;;;61.05;28.48;;;-3.90;99.90;;;;;;4187013;28;20094;-43
2021/01/14 07:30:26;;;;;;;63.05;30.83;;;-3.80;99.90;;;;;;4188394;28;20052;-40
2021/01/14 07:32:52;;;;;;;62.42;30.25;;;-3.70;99.90;;;;;;4186992;28;20082;-40
2021/01/14 07:34:55;;;;;;;64.00;28.85;;;-3.70;99.90;;;;;;4188059;28;20067;-45
2021/01/14 07:36:56;;;;;;;59.60;27.60;;;-3.60;99.90;;;;;;4187729;28;20058;-41
2021/01/14 07:38:57;;;;;;;65.18;31.17;;;-3.50;99.90;;;;;;4184230;28;20443;-46
2021/01/14 07:40:58;;;;;;;59.80;28.52;;;-3.40;99.90;;;;;;4174055;28;20053;-39
2021/01/14 07:43:05;;;;;;;56.97;27.35;;;-3.40;99.90;;;;;;4182341;28;20045;-39
2021/01/14 07:45:14;;;;;;;58.72;25.95;;;-3.40;99.90;;;;;;4190690;28;20047;-39
2021/01/14 07:47:35;;;;;;;60.42;27.98;;;-3.30;99.90;;;;;;4185679;28;20796;-43
2021/01/14 07:49:37;;;;;;;60.33;27.30;;;-3.40;99.90;;;;;;4181168;28;20082;-37
2021/01/14 07:51:47;;;;;;;60.97;25.60;;;-3.50;99.90;;;;;;4174417;28;20190;-35
2021/01/14 07:54:07;;;;;;;51.25;23.48;;;-3.50;99.90;;;;;;4174111;28;20542;-33
2021/01/14 07:56:27;;;;;;;51.67;23.83;;;-3.60;99.90;;;;;;4175377;28;20590;-34
2021/01/14 07:58:30;;;;;;;57.50;23.92;;;-3.80;99.90;;;;;;4174245;28;20028;-35
2021/01/14 08:00:32;;;;;;;49.97;23.45;;;-3.80;99.90;;;;;;4174947;28;20044;-38
2021/01/14 08:03:08;;;;;;;55.15;23.77;;;-3.80;99.90;;;;;;4172124;28;20536;-38
2021/01/14 08:05:09;;;;;;;58.97;25.60;;;-3.90;99.90;;;;;;4174052;28;20037;-36
2021/01/14 08:07:25;;;;;;;63.15;25.77;;;-3.90;99.90;;;;;;4173921;28;20103;-35
2021/01/14 08:09:26;;;;;;;51.10;23.33;;;-3.80;99.90;;;;;;4174827;28;20087;-35
2021/01/14 08:11:55;;;;;;;48.55;22.58;;;-3.80;99.90;;;;;;4173860;28;20082;-35
2021/01/14 08:14:09;;;;;;;47.28;21.63;;;-3.80;99.90;;;;;;4175271;28;20099;-36
2021/01/14 08:16:50;;;;;;;45.72;21.73;;;-3.70;99.90;;;;;;4173637;28;20134;-36
2021/01/14 08:19:33;;;;;;;41.53;20.95;;;-3.50;99.90;;;;;;4165165;28;20113;-36
2021/01/14 08:21:34;;;;;;;43.75;22.33;;;-3.40;99.90;;;;;;4121893;28;20395;-38
2021/01/14 08:23:41;;;;;;;53.42;24.35;;;-3.30;99.90;;;;;;4151801;28;20440;-38
2021/01/14 08:25:43;;;;;;;48.28;21.63;;;-3.20;99.90;;;;;;4185498;28;20098;-42
2021/01/14 08:27:46;;;;;;;46.17;20.83;;;-3.20;99.90;;;;;;4186247;28;20054;-35
2021/01/14 08:29:54;;;;;;;45.47;21.02;;;-3.20;99.90;;;;;;4186942;28;20417;-37
2021/01/14 08:31:55;;;;;;;54.72;24.13;;;-3.20;99.90;;;;;;4187093;28;20113;-48
2021/01/14 08:33:58;;;;;;;56.83;23.83;;;-3.20;99.90;;;;;;4177810;28;20668;-37
2021/01/14 08:36:04;;;;;;;59.65;27.95;;;-3.20;99.90;;;;;;4189369;28;20086;-36
2021/01/14 08:38:10;;;;;;;61.80;29.00;;;-3.10;99.90;;;;;;4189641;28;20082;-36
2021/01/14 08:40:32;;;;;;;68.75;30.23;;;-3.10;99.90;;;;;;4190243;28;20791;-34
2021/01/14 08:42:44;;;;;;;88.10;35.93;;;-3.00;99.90;;;;;;4175775;28;20095;-37
2021/01/14 08:44:49;;;;;;;87.25;36.38;;;-3.00;99.90;;;;;;4173405;28;20278;-35
2021/01/14 08:46:52;;;;;;;79.60;35.20;;;-3.00;99.90;;;;;;4173658;28;20024;-36
2021/01/14 08:49:34;;;;;;;76.80;36.10;;;-3.00;99.90;;;;;;4172815;28;20041;-35
2021/01/14 08:51:39;;;;;;;84.67;36.07;;;-2.80;99.90;;;;;;4173136;28;20568;-38
2021/01/14 08:53:40;;;;;;;77.23;34.97;;;-2.60;99.90;;;;;;4173406;28;21109;-44
2021/01/14 08:55:41;;;;;;;77.43;36.07;;;-2.50;99.90;;;;;;4172923;28;20259;-38
2021/01/14 08:57:52;;;;;;;78.97;33.73;;;-2.50;99.90;;;;;;4181070;28;20270;-36
2021/01/14 08:59:54;;;;;;;74.60;34.23;;;-2.30;99.90;;;;;;4189572;28;20744;-40
2021/01/14 09:01:56;;;;;;;68.40;33.20;;;-2.40;99.90;;;;;;4189591;28;20328;-38
2021/01/14 09:03:58;;;;;;;70.00;32.63;;;-2.30;99.90;;;;;;4183257;28;20347;-35
2021/01/14 09:05:59;;;;;;;65.67;31.47;;;-2.30;99.90;;;;;;4172809;28;20274;-35
2021/01/14 09:08:08;;;;;;;65.53;32.60;;;-2.20;99.90;;;;;;4180361;28;20269;-35
2021/01/14 09:10:10;;;;;;;74.35;35.72;;;-2.20;99.90;;;;;;4189980;28;20761;-36
2021/01/14 09:12:11;;;;;;;68.47;32.73;;;-2.10;99.90;;;;;;4189002;28;20044;-39
2021/01/14 09:14:14;;;;;;;59.37;29.33;;;-2.10;99.90;;;;;;4190226;28;20327;-35
2021/01/14 09:16:19;;;;;;;66.00;31.93;;;-2.00;99.90;;;;;;4188696;28;20249;-41
2021/01/14 09:18:40;;;;;;;64.73;30.00;;;-2.00;99.90;;;;;;4185636;28;20311;-41
2021/01/14 09:20:50;;;;;;;65.77;28.90;;;-1.90;99.90;;;;;;4171636;28;20270;-36
2021/01/14 09:22:51;;;;;;;61.47;25.73;;;-1.90;99.90;;;;;;4173095;28;20336;-35
2021/01/14 09:24:52;;;;;;;48.10;25.23;;;-1.90;99.90;;;;;;4172406;28;20286;-36
2021/01/14 09:26:55;;;;;;;49.87;25.00;;;-1.90;99.90;;;;;;4177286;28;20304;-37
2021/01/14 09:28:56;;;;;;;61.33;28.27;;;-1.80;99.90;;;;;;4184175;28;20331;-35
2021/01/14 09:31:01;;;;;;;55.83;26.90;;;-1.80;99.90;;;;;;4189098;28;20273;-36
2021/01/14 09:33:03;;;;;;;55.60;26.20;;;-1.80;99.90;;;;;;4188234;28;20303;-43
2021/01/14 09:35:15;;;;;;;62.93;28.30;;;-1.80;99.90;;;;;;4188993;28;20307;-42
2021/01/14 09:37:18;;;;;;;50.80;23.80;;;-1.70;99.90;;;;;;4178517;28;20339;-39
2021/01/14 09:39:20;;;;;;;52.63;25.90;;;-1.70;99.90;;;;;;4172961;28;20324;-38
2021/01/14 09:41:27;;;;;;;66.83;30.43;;;-1.70;99.90;;;;;;4172552;28;20294;-34
2021/01/14 09:43:29;;;;;;;53.60;26.23;;;-1.70;99.90;;;;;;4172980;28;20274;-49
2021/01/14 09:45:30;;;;;;;59.90;27.63;;;-1.70;99.90;;;;;;4172336;28;20266;-44
2021/01/14 09:47:31;;;;;;;48.23;25.47;;;-1.60;99.90;;;;;;4172247;28;20653;-45
2021/01/14 09:49:33;;;;;;;46.13;23.37;;;-1.60;99.90;;;;;;4171973;28;20713;-38
2021/01/14 09:51:35;;;;;;;54.53;26.03;;;-1.70;99.90;;;;;;4172605;28;20262;-34
2021/01/14 09:53:47;;;;;;;50.13;23.93;;;-1.70;99.90;;;;;;4172859;28;20331;-34
2021/01/14 09:55:49;;;;;;;49.53;24.43;;;-1.70;99.90;;;;;;4171925;28;20315;-44
2021/01/14 09:57:55;;;;;;;54.03;25.03;;;-1.80;99.90;;;;;;4172341;28;20333;-38
2021/01/14 09:59:58;;;;;;;51.10;26.07;;;-1.70;99.90;;;;;;4185216;28;20327;-35
2021/01/14 10:02:14;;;;;;;42.20;20.43;;;-1.70;99.90;;;;;;4188381;28;20314;-45
2021/01/14 10:04:19;;;;;;;44.50;21.87;;;-1.60;99.90;;;;;;4186934;28;20334;-36
2021/01/14 10:06:22;;;;;;;39.63;20.13;;;-1.60;99.90;;;;;;4189274;28;20800;-37
2021/01/14 10:08:24;;;;;;;49.97;23.67;;;-1.70;99.90;;;;;;4187450;28;20354;-36
2021/01/14 10:10:29;;;;;;;49.13;24.87;;;-1.70;99.90;;;;;;4187927;28;20330;-34
2021/01/14 10:12:32;;;;;;;51.00;25.33;;;-1.70;99.90;;;;;;4188050;28;20684;-37
2021/01/14 10:14:34;;;;;;;55.60;25.60;;;-1.70;99.90;;;;;;4188485;28;20394;-36
2021/01/14 10:16:35;;;;;;;54.77;24.50;;;-1.70;99.90;;;;;;4187550;28;20338;-35
2021/01/14 10:18:36;;;;;;;51.20;25.17;;;-1.70;99.90;;;;;;4184811;28;20827;-36
2021/01/14 10:20:37;;;;;;;46.10;24.37;;;-1.70;99.90;;;;;;4171698;28;20323;-35
2021/01/14 10:22:52;;;;;;;53.50;25.23;;;-1.80;99.90;;;;;;4176249;28;20297;-38
2021/01/14 10:25:07;;;;;;;46.03;22.87;;;-1.80;99.90;;;;;;4171918;28;20290;-35
2021/01/14 10:27:19;;;;;;;44.57;23.17;;;-1.80;99.90;;;;;;4172198;28;20681;-35
2021/01/14 10:29:40;;;;;;;45.33;21.67;;;-1.70;99.90;;;;;;4171715;28;20312;-35
2021/01/14 10:31:44;;;;;;;46.17;22.93;;;-1.70;99.90;;;;;;4171719;28;20294;-36
2021/01/14 10:33:55;;;;;;;50.97;21.87;;;-1.80;99.90;;;;;;4171391;28;20270;-35
2021/01/14 10:35:56;;;;;;;;;;;-1.80;99.90;;;;;;4172186;28;20270;-35
2021/01/14 10:38:15;;;;;;;;;;;-1.80;99.90;;;;;;4172360;28;19908;-35